Time;durP1;ratioP1;P1;durP2;ratioP2;P2;SDS_P1;SDS_P2;PMS_P1;PMS_P2;Temp;Humidity;BMP_temperature;BMP_pressure;BME280_temperature;BME280_humidity;BME280_pressure;Samples;Min_cycle;Max_cycle;Signal;HPM_P1;HPM_P2
2022/10/16 00:01:25;;;;;;;;;;;;;;;-142.75;100.00;76491.56;5032423;28;20340;-69
2022/10/16 00:03:50;;;;;;;;;;;;;;;-142.75;100.00;76507.31;5044615;28;19917;-69
2022/10/16 00:06:16;;;;;;;;;;;;;;;-142.75;100.00;76493.53;5030072;28;19925;-68
2022/10/16 00:08:42;;;;;;;;;;;;;;;-142.75;100.00;76499.44;5030033;28;19924;-67
2022/10/16 00:11:14;;;;;;;;;;;;;;;-142.75;100.00;76521.09;5030557;28;19917;-70
2022/10/16 00:13:40;;;;;;;;;;;;;;;-142.75;100.00;76503.38;5030377;28;19917;-69
2022/10/16 00:16:06;;;;;;;;;;;;;;;-142.75;100.00;76515.19;5030077;28;19924;-68
2022/10/16 00:18:32;;;;;;;;;;;;;;;-142.75;100.00;76507.31;5029947;28;19917;-69
2022/10/16 00:21:04;;;;;;;;;;;;;;;-142.75;100.00;76503.38;5030504;28;19972;-69
2022/10/16 00:23:29;;;;;;;;;;;;;;;-142.75;100.00;76503.38;5049481;28;19916;-68
2022/10/16 00:25:59;;;;;;;;;;;;;;;-142.75;100.00;76501.41;5028277;28;19925;-69
2022/10/16 00:28:25;;;;;;;;;;;;;;;-142.75;100.00;76505.34;5013432;28;20294;-70
2022/10/16 00:30:50;;;;;;;;;;;;;;;-142.75;100.00;76503.38;5042196;28;19925;-67
2022/10/16 00:33:15;;;;;;;;;;;;;;;-142.75;100.00;76503.38;5029892;28;20393;-70
2022/10/16 00:35:41;;;;;;;;;;;;;;;-142.75;100.00;76491.56;5013402;28;19917;-69
2022/10/16 00:38:06;;;;;;;;;;;;;;;-142.75;100.00;76499.44;5029536;28;20399;-67
2022/10/16 00:40:31;;;;;;;;;;;;;;;-142.75;100.00;76515.19;5029779;28;20298;-70
2022/10/16 00:42:56;;;;;;;;;;;;;;;-142.75;100.00;76507.31;5012210;28;19951;-68
2022/10/16 00:45:21;;;;;;;;;;;;;;;-142.75;100.00;76513.22;5029957;28;20020;-69
2022/10/16 00:47:49;;;;;;;;;;;;;;;-142.75;100.00;76501.41;5029388;28;19917;-69
2022/10/16 00:50:21;;;;;;;;;;;;;;;-142.75;100.00;76507.31;5049657;28;19963;-69
2022/10/16 00:52:48;;;;;;;;;;;;;;;-142.75;100.00;76509.28;5049564;28;19916;-68
2022/10/16 00:55:13;;;;;;;;;;;;;;;-142.75;100.00;76517.16;5049368;28;19917;-69
2022/10/16 00:57:39;;;;;;;;;;;;;;;-142.75;100.00;76521.09;5048578;28;20379;-69
2022/10/16 01:00:06;;;;;;;;;;;;;;;-142.75;100.00;76546.66;5049243;28;20394;-69
2022/10/16 01:02:31;;;;;;;;;;;;;;;-142.75;100.00;76550.59;5048989;28;20046;-67
2022/10/16 01:04:57;;;;;;;;;;;;;;;-142.75;100.00;76536.84;5036266;28;19927;-68
2022/10/16 01:07:30;;;;;;;;;;;;;;;-142.75;100.00;76546.66;5028984;28;19925;-68
2022/10/16 01:10:14;;;;;;;;;;;;;;;-142.75;100.00;76568.31;5011874;28;19917;-69
2022/10/16 01:12:45;;;;;;;;;;;;;;;-142.75;100.00;76580.13;5047836;28;19924;-69
2022/10/16 01:15:14;;;;;;;;;;;;;;;-142.75;100.00;76570.28;5049200;28;19928;-69
2022/10/16 01:17:51;;;;;;;;;;;;;;;-142.75;100.00;76586.03;5048690;28;19917;-68
2022/10/16 01:20:31;;;;;;;;;;;;;;;-142.75;100.00;76589.97;5049142;28;19956;-69
2022/10/16 01:22:56;;;;;;;;;;;;;;;-142.75;100.00;76588.00;5042136;28;19971;-69
2022/10/16 01:25:36;;;;;;;;;;;;;;;-142.75;100.00;76593.91;5029259;28;19921;-69
2022/10/16 01:28:02;;;;;;;;;;;;;;;-142.75;100.00;76595.88;5011257;28;19918;-69
2022/10/16 01:30:29;;;;;;;;;;;;;;;-142.75;100.00;76586.03;5029463;28;19971;-69
2022/10/16 01:32:54;;;;;;;;;;;;;;;-142.75;100.00;76586.03;5011522;28;19917;-69
2022/10/16 01:35:23;;;;;;;;;;;;;;;-142.75;100.00;76607.69;5029105;28;19936;-69
2022/10/16 01:37:52;;;;;;;;;;;;;;;-142.75;100.00;76601.78;5028892;28;20027;-69
2022/10/16 01:40:19;;;;;;;;;;;;;;;-142.75;100.00;76593.91;5029323;28;21863;-70
2022/10/16 01:42:48;;;;;;;;;;;;;;;-142.75;100.00;76597.84;5029098;28;19917;-69
2022/10/16 01:45:15;;;;;;;;;;;;;;;-142.75;100.00;76595.88;5011543;28;19917;-69
2022/10/16 01:47:41;;;;;;;;;;;;;;;-142.75;100.00;76609.66;5028604;28;19956;-68
2022/10/16 01:50:07;;;;;;;;;;;;;;;-142.75;100.00;76597.84;5029019;28;20417;-69
2022/10/16 01:52:35;;;;;;;;;;;;;;;-142.75;100.00;76609.66;5029503;28;19967;-69
2022/10/16 01:55:02;;;;;;;;;;;;;;;-142.75;100.00;76609.66;5028796;28;20010;-68
2022/10/16 01:57:29;;;;;;;;;;;;;;;-142.75;100.00;76607.69;5028786;28;19917;-69
2022/10/16 01:59:56;;;;;;;;;;;;;;;-142.75;100.00;76613.59;5043968;28;20408;-69
2022/10/16 02:02:22;;;;;;;;;;;;;;;-142.75;100.00;76617.53;5030551;28;19956;-67
2022/10/16 02:04:49;;;;;;;;;;;;;;;-142.75;100.00;76597.84;5048588;28;19917;-69
2022/10/16 02:07:15;;;;;;;;;;;;;;;-142.75;100.00;76617.53;5030374;28;19917;-69
2022/10/16 02:09:40;;;;;;;;;;;;;;;-142.75;100.00;76619.50;5040298;28;20003;-69
2022/10/16 02:12:14;;;;;;;;;;;;;;;-142.75;100.00;76617.53;5032484;28;19917;-69
2022/10/16 02:14:40;;;;;;;;;;;;;;;-142.75;100.00;76625.41;5032336;28;20039;-68
2022/10/16 02:17:13;;;;;;;;;;;;;;;-142.75;100.00;76609.66;5032150;28;20427;-68
2022/10/16 02:19:39;;;;;;;;;;;;;;;-142.75;100.00;76617.53;5032801;28;19964;-69
2022/10/16 02:22:05;;;;;;;;;;;;;;;-142.75;100.00;76613.59;5032881;28;20358;-71
2022/10/16 02:24:57;;;;;;;;;;;;;;;-142.75;100.00;76625.41;5032538;28;19955;-70
2022/10/16 02:27:22;;;;;;;;;;;;;;;-142.75;100.00;76619.50;5046494;28;20002;-69
2022/10/16 02:29:50;;;;;;;;;;;;;;;-142.75;100.00;76617.53;5052058;28;19956;-70
2022/10/16 02:32:21;;;;;;;;;;;;;;;-142.75;100.00;76625.41;5046491;28;19925;-70
2022/10/16 02:34:48;;;;;;;;;;;;;;;-142.75;100.00;76621.47;5051251;28;20305;-69
2022/10/16 02:37:13;;;;;;;;;;;;;;;-142.75;100.00;76625.41;5033670;28;19924;-69
2022/10/16 02:39:40;;;;;;;;;;;;;;;-142.75;100.00;76629.34;5052201;28;20019;-69
2022/10/16 02:42:09;;;;;;;;;;;;;;;-142.75;100.00;76613.59;5051672;28;19951;-70
2022/10/16 02:44:34;;;;;;;;;;;;;;;-142.75;100.00;76609.66;5051518;28;19963;-66
2022/10/16 02:47:00;;;;;;;;;;;;;;;-142.75;100.00;76621.47;5051381;28;19921;-69
2022/10/16 02:49:25;;;;;;;;;;;;;;;-142.75;100.00;76611.63;5051690;28;20410;-70
2022/10/16 02:51:50;;;;;;;;;;;;;;;-142.75;100.00;76609.66;5052081;28;19916;-70
2022/10/16 02:54:15;;;;;;;;;;;;;;;-142.75;100.00;76601.78;5051892;28;19917;-68
2022/10/16 02:56:40;;;;;;;;;;;;;;;-142.75;100.00;76591.94;5051153;28;19931;-71
2022/10/16 02:59:05;;;;;;;;;;;;;;;-142.75;100.00;76595.88;5051324;28;19917;-69
2022/10/16 03:01:31;;;;;;;;;;;;;;;-142.75;100.00;76593.91;5033450;28;19956;-69
2022/10/16 03:03:56;;;;;;;;;;;;;;;-142.75;100.00;76584.06;5045737;28;19917;-67
2022/10/16 03:06:21;;;;;;;;;;;;;;;-142.75;100.00;76603.75;5013758;28;19924;-70
2022/10/16 03:08:46;;;;;;;;;;;;;;;-142.75;100.00;76597.84;5031594;28;19924;-69
2022/10/16 03:11:11;;;;;;;;;;;;;;;-142.75;100.00;76613.59;5031466;28;19928;-71
2022/10/16 03:13:37;;;;;;;;;;;;;;;-142.75;100.00;76613.59;5013728;28;19925;-69
2022/10/16 03:16:02;;;;;;;;;;;;;;;-142.75;100.00;76613.59;5031394;28;19921;-68
2022/10/16 03:18:27;;;;;;;;;;;;;;;-142.75;100.00;76609.66;5031068;28;19917;-69
2022/10/16 03:20:52;;;;;;;;;;;;;;;-142.75;100.00;76603.75;5031471;28;19925;-69
2022/10/16 03:23:17;;;;;;;;;;;;;;;-142.75;100.00;76623.44;5013949;28;20319;-69
2022/10/16 03:25:43;;;;;;;;;;;;;;;-142.75;100.00;76623.44;5031211;28;19917;-70
2022/10/16 03:28:08;;;;;;;;;;;;;;;-142.75;100.00;76629.34;5030753;28;19925;-70
2022/10/16 03:30:34;;;;;;;;;;;;;;;-142.75;100.00;76637.22;5031168;28;19917;-67
2022/10/16 03:32:59;;;;;;;;;;;;;;;-142.75;100.00;76639.19;5031249;28;20390;-70
2022/10/16 03:35:24;;;;;;;;;;;;;;;-142.75;100.00;76635.25;5013317;28;20008;-69
2022/10/16 03:37:50;;;;;;;;;;;;;;;-142.75;100.00;76635.25;5030718;28;19917;-71
2022/10/16 03:40:15;;;;;;;;;;;;;;;-142.75;100.00;76625.41;5031156;28;20000;-70
2022/10/16 03:42:42;;;;;;;;;;;;;;;-142.75;100.00;76625.41;5030859;28;19964;-70
2022/10/16 03:45:07;;;;;;;;;;;;;;;-142.75;100.00;76637.22;5030942;28;19971;-70
2022/10/16 03:47:33;;;;;;;;;;;;;;;-142.75;100.00;76635.25;5030375;28;19929;-70
2022/10/16 03:49:58;;;;;;;;;;;;;;;-142.75;100.00;76645.09;5030741;28;19917;-71
2022/10/16 03:52:24;;;;;;;;;;;;;;;-142.75;100.00;76645.09;5031296;28;19917;-70
2022/10/16 03:54:49;;;;;;;;;;;;;;;-142.75;100.00;76649.03;5030644;28;19967;-71
2022/10/16 03:57:14;;;;;;;;;;;;;;;-142.75;100.00;76654.94;5030236;28;19917;-67
2022/10/16 03:59:39;;;;;;;;;;;;;;;-142.75;100.00;76641.16;5012889;28;19917;-69
2022/10/16 04:02:04;;;;;;;;;;;;;;;-142.75;100.00;76649.03;5012733;28;20370;-70
2022/10/16 04:04:29;;;;;;;;;;;;;;;-142.75;100.00;76651.00;5030524;28;19995;-69
2022/10/16 04:06:55;;;;;;;;;;;;;;;-142.75;100.00;76670.69;5030161;28;19917;-69
2022/10/16 04:09:20;;;;;;;;;;;;;;;-142.75;100.00;76662.81;5030600;28;20023;-69
2022/10/16 04:11:45;;;;;;;;;;;;;;;-142.75;100.00;76662.81;5012462;28;19916;-68
2022/10/16 04:14:10;;;;;;;;;;;;;;;-142.75;100.00;76662.81;5030317;28;20306;-69
2022/10/16 04:16:35;;;;;;;;;;;;;;;-142.75;100.00;76666.75;5030077;28;19971;-67
2022/10/16 04:19:01;;;;;;;;;;;;;;;-142.75;100.00;76678.56;5012423;28;20023;-69
2022/10/16 04:21:26;;;;;;;;;;;;;;;-142.75;100.00;76672.66;5030639;28;19921;-69
2022/10/16 04:23:51;;;;;;;;;;;;;;;-142.75;100.00;76668.72;5030406;28;19925;-70
2022/10/16 04:26:16;;;;;;;;;;;;;;;-142.75;100.00;76678.56;5029635;28;19917;-67
2022/10/16 04:28:42;;;;;;;;;;;;;;;-142.75;100.00;76688.41;5029843;28;19921;-69
2022/10/16 04:31:07;;;;;;;;;;;;;;;-142.75;100.00;76684.47;5012374;28;19917;-70
2022/10/16 04:33:33;;;;;;;;;;;;;;;-142.75;100.00;76700.22;5029327;28;19921;-70
2022/10/16 04:36:02;;;;;;;;;;;;;;;-142.75;100.00;76708.09;5029888;28;19925;-69
2022/10/16 04:38:27;;;;;;;;;;;;;;;-142.75;100.00;76708.09;5048213;28;19970;-69
2022/10/16 04:40:53;;;;;;;;;;;;;;;-142.75;100.00;76700.22;5049534;28;20352;-69
2022/10/16 04:43:18;;;;;;;;;;;;;;;-142.75;100.00;76708.09;5014319;28;19941;-69
2022/10/16 04:45:43;;;;;;;;;;;;;;;-142.75;100.00;76714.00;5031198;28;19917;-69
2022/10/16 04:48:08;;;;;;;;;;;;;;;-142.75;100.00;76706.13;5049090;28;19959;-69
2022/10/16 04:50:34;;;;;;;;;;;;;;;-142.75;100.00;76723.84;5049302;28;19999;-69
2022/10/16 04:52:59;;;;;;;;;;;;;;;-142.75;100.00;76712.03;5032197;28;19916;-69
2022/10/16 04:55:24;;;;;;;;;;;;;;;-142.75;100.00;76723.84;5049353;28;20397;-69
2022/10/16 04:57:49;;;;;;;;;;;;;;;-142.75;100.00;76727.78;5036728;28;19949;-68
2022/10/16 05:00:15;;;;;;;;;;;;;;;-142.75;100.00;76719.91;5029647;28;19952;-69
2022/10/16 05:02:40;;;;;;;;;;;;;;;-142.75;100.00;76717.94;5029453;28;19937;-69
2022/10/16 05:05:05;;;;;;;;;;;;;;;-142.75;100.00;76719.91;5011596;28;19971;-68
2022/10/16 05:07:30;;;;;;;;;;;;;;;-142.75;100.00;76715.97;5029148;28;20383;-69
2022/10/16 05:09:56;;;;;;;;;;;;;;;-142.75;100.00;76733.69;5029739;28;20354;-70
2022/10/16 05:12:21;;;;;;;;;;;;;;;-142.75;100.00;76715.97;5011818;28;19925;-69
2022/10/16 05:14:46;;;;;;;;;;;;;;;-142.75;100.00;76714.00;5011747;28;19956;-70
2022/10/16 05:17:11;;;;;;;;;;;;;;;-142.75;100.00;76719.91;5011334;28;20106;-69
2022/10/16 05:19:36;;;;;;;;;;;;;;;-142.75;100.00;76719.91;5029381;28;19956;-70
2022/10/16 05:22:02;;;;;;;;;;;;;;;-142.75;100.00;76704.16;5049365;28;20042;-68
2022/10/16 05:24:27;;;;;;;;;;;;;;;-142.75;100.00;76723.84;5049216;28;20297;-69
2022/10/16 05:26:53;;;;;;;;;;;;;;;-142.75;100.00;76729.75;5048693;28;19928;-69
2022/10/16 05:29:19;;;;;;;;;;;;;;;-142.75;100.00;76727.78;5079765;23;19932;-67
2022/10/16 05:31:44;;;;;;;;;;;;;;;-142.75;100.00;76729.75;5069819;28;20019;-67
2022/10/16 05:34:10;;;;;;;;;;;;;;;-142.75;100.00;76729.75;5073529;28;20439;-67
2022/10/16 05:36:35;;;;;;;;;;;;;;;-142.75;100.00;76727.78;5053240;28;19916;-68
2022/10/16 05:39:00;;;;;;;;;;;;;;;-142.75;100.00;76747.47;5053753;28;19924;-67
2022/10/16 05:41:26;;;;;;;;;;;;;;;-142.75;100.00;76733.69;5068091;28;19928;-67
2022/10/16 05:43:51;;;;;;;;;;;;;;;-142.75;100.00;76747.47;5070109;28;20440;-67
2022/10/16 05:46:16;;;;;;;;;;;;;;;-142.75;100.00;76737.63;5072846;28;20271;-67
2022/10/16 05:48:42;;;;;;;;;;;;;;;-142.75;100.00;76743.53;5054662;28;19927;-67
2022/10/16 05:51:08;;;;;;;;;;;;;;;-142.75;100.00;76743.53;5073121;28;20370;-67
2022/10/16 05:53:35;;;;;;;;;;;;;;;-142.75;100.00;76747.47;5055236;28;20021;-67
2022/10/16 05:56:00;;;;;;;;;;;;;;;-142.75;100.00;76767.16;5065658;28;19917;-67
2022/10/16 05:58:28;;;;;;;;;;;;;;;-142.75;100.00;76763.22;5052061;28;19923;-67
2022/10/16 06:00:54;;;;;;;;;;;;;;;-142.75;100.00;76771.09;5052614;28;19920;-68
2022/10/16 06:03:19;;;;;;;;;;;;;;;-142.75;100.00;76771.09;5057146;28;19917;-67
2022/10/16 06:05:45;;;;;;;;;;;;;;;-142.75;100.00;76771.09;5053297;28;20294;-68
2022/10/16 06:08:10;;;;;;;;;;;;;;;-142.75;100.00;76773.06;5052270;28;19924;-68
2022/10/16 06:10:35;;;;;;;;;;;;;;;-142.75;100.00;76775.03;5054057;28;19924;-67
2022/10/16 06:13:00;;;;;;;;;;;;;;;-142.75;100.00;76763.22;5055595;28;20366;-67
2022/10/16 06:15:26;;;;;;;;;;;;;;;-142.75;100.00;76784.88;5052318;28;19924;-67
2022/10/16 06:17:51;;;;;;;;;;;;;;;-142.75;100.00;76798.66;5034133;28;19920;-67
2022/10/16 06:20:16;;;;;;;;;;;;;;;-142.75;100.00;76790.78;5052435;28;19917;-67
2022/10/16 06:22:41;;;;;;;;;;;;;;;-142.75;100.00;76794.69;5052702;28;19978;-67
2022/10/16 06:25:06;;;;;;;;;;;;;;;-142.75;100.00;76796.69;5052416;28;20275;-67
2022/10/16 06:27:32;;;;;;;;;;;;;;;-142.75;100.00;76804.53;5050860;28;19920;-67
2022/10/16 06:29:57;;;;;;;;;;;;;;;-142.75;100.00;76806.50;5052228;28;19924;-68
2022/10/16 06:32:22;;;;;;;;;;;;;;;-142.75;100.00;76788.81;5052236;28;19917;-67
2022/10/16 06:34:47;;;;;;;;;;;;;;;-142.75;100.00;76790.78;5068893;28;20352;-67
2022/10/16 06:37:13;;;;;;;;;;;;;;;-142.75;100.00;76786.84;5062884;28;20398;-67
2022/10/16 06:39:38;;;;;;;;;;;;;;;-142.75;100.00;76784.88;5066898;28;20003;-67
2022/10/16 06:42:04;;;;;;;;;;;;;;;-142.75;100.00;76792.75;5071138;28;19921;-67
2022/10/16 06:44:29;;;;;;;;;;;;;;;-142.75;100.00;76790.78;5070949;28;19917;-67
2022/10/16 06:46:54;;;;;;;;;;;;;;;-142.75;100.00;76786.84;5052734;28;19924;-67
2022/10/16 06:49:22;;;;;;;;;;;;;;;-142.75;100.00;76790.78;5070934;28;19962;-67
2022/10/16 06:51:47;;;;;;;;;;;;;;;-142.75;100.00;76800.63;5071462;28;19916;-67
2022/10/16 06:54:12;;;;;;;;;;;;;;;-142.75;100.00;76802.56;5071279;28;19916;-68
2022/10/16 06:56:38;;;;;;;;;;;;;;;-142.75;100.00;76816.34;5068060;28;20650;-68
2022/10/16 06:59:03;;;;;;;;;;;;;;;-142.75;100.00;76806.50;5040833;28;20446;-67
2022/10/16 07:01:28;;;;;;;;;;;;;;;-142.75;100.00;76808.50;5070736;28;19920;-67
2022/10/16 07:03:54;;;;;;;;;;;;;;;-142.75;100.00;76818.31;5070724;28;19916;-67
2022/10/16 07:06:20;;;;;;;;;;;;;;;-142.75;100.00;76822.25;5070897;28;20397;-67
2022/10/16 07:08:46;;;;;;;;;;;;;;;-142.75;100.00;76820.28;5070600;28;19916;-67
2022/10/16 07:11:13;;;;;;;;;;;;;;;-142.75;100.00;76828.16;5070750;28;19988;-67
2022/10/16 07:13:39;;;;;;;;;;;;;;;-142.75;100.00;76824.22;5070577;28;20058;-67
2022/10/16 07:16:08;;;;;;;;;;;;;;;-142.75;100.00;76830.13;5066186;28;20400;-67
2022/10/16 07:18:34;;;;;;;;;;;;;;;-142.75;100.00;76788.81;5059674;28;19999;-67
2022/10/16 07:21:12;;;;;;;;;;;;;;;-142.75;100.00;76761.25;5063902;28;20401;-67
2022/10/16 07:23:38;;;;;;;;;;;;;;;-142.75;100.00;76727.78;5041726;28;20339;-67
2022/10/16 07:26:03;;;;;;;;;;;;;;;-142.75;100.00;76688.41;5061371;28;20022;-67
2022/10/16 07:28:28;;;;;;;;;;;;;;;-142.75;100.00;76680.53;5058610;28;19916;-67
2022/10/16 07:30:54;;;;;;;;;;;;;;;-142.75;100.00;76641.16;5062357;28;19947;-67
2022/10/16 07:33:19;;;;;;;;;;;;;;;-142.75;100.00;76607.69;5070446;28;19917;-67
2022/10/16 07:35:51;;;;;;;;;;;;;;;-142.75;100.00;76611.63;5070207;28;20293;-67
2022/10/16 07:38:17;;;;;;;;;;;;;;;-142.75;100.00;76574.22;5038615;28;21317;-66
2022/10/16 07:40:42;;;;;;;;;;;;;;;-142.75;100.00;76562.41;5052772;28;19936;-67
2022/10/16 07:43:07;;;;;;;;;;;;;;;-142.75;100.00;76528.97;5053924;28;19917;-67
2022/10/16 07:45:32;;;;;;;;;;;;;;;-142.75;100.00;76505.34;5061654;28;19916;-67
2022/10/16 07:47:58;;;;;;;;;;;;;;;-142.75;100.00;76481.72;5061595;28;20374;-67
2022/10/16 07:50:23;;;;;;;;;;;;;;;-142.75;100.00;76448.25;5062391;28;19916;-67
2022/10/16 07:52:48;;;;;;;;;;;;;;;-142.75;100.00;76462.03;5061769;28;19921;-67
2022/10/16 07:55:13;;;;;;;;;;;;;;;-142.75;100.00;76503.38;5061046;28;20398;-67
2022/10/16 07:57:38;;;;;;;;;;;;;;;-142.75;100.00;76462.03;5040411;28;19916;-67
2022/10/16 08:00:04;;;;;;;;;;;;;;;-142.75;100.00;76444.31;5058942;28;19939;-67
2022/10/16 08:02:29;;;;;;;;;;;;;;;-142.75;100.00;76430.53;5059860;28;19927;-67
2022/10/16 08:04:55;;;;;;;;;;;;;;;-142.75;100.00;76422.66;5046753;28;19920;-67
2022/10/16 08:07:20;;;;;;;;;;;;;;;-142.75;100.00;76402.97;5058180;28;19932;-67
2022/10/16 08:09:48;;;;;;;;;;;;;;;-142.75;100.00;76401.00;5058509;28;19956;-67
2022/10/16 08:12:13;;;;;;;;;;;;;;;-142.75;100.00;76357.69;5064473;28;20377;-67
2022/10/16 08:14:39;;;;;;;;;;;;;;;-142.75;100.00;76377.38;5058745;28;19971;-66
2022/10/16 08:17:04;;;;;;;;;;;;;;;-142.75;100.00;76330.16;5063883;28;19916;-66
2022/10/16 08:19:31;;;;;;;;;;;;;;;-142.75;100.00;76302.59;5054073;28;20292;-64
2022/10/16 08:21:56;;;;;;;;;;;;;;;-142.75;100.00;76290.78;5050472;28;19921;-64
2022/10/16 08:24:21;;;;;;;;;;;;;;;-142.75;100.00;76267.16;5052668;28;20468;-64
2022/10/16 08:26:47;;;;;;;;;;;;;;;-142.75;100.00;76235.66;5066214;28;19920;-64
2022/10/16 08:29:13;;;;;;;;;;;;;;;-142.75;100.00;76227.78;5059935;28;19955;-64
2022/10/16 08:31:38;;;;;;;;;;;;;;;-142.75;100.00;76247.47;5057874;28;19916;-64
2022/10/16 08:34:03;;;;;;;;;;;;;;;-142.75;100.00;76249.44;5051346;28;19932;-64
2022/10/16 08:36:28;;;;;;;;;;;;;;;-142.75;100.00;76251.41;5053932;28;19916;-64
2022/10/16 08:38:54;;;;;;;;;;;;;;;-142.75;100.00;76255.34;5052929;28;20385;-64
2022/10/16 08:41:28;;;;;;;;;;;;;;;-142.75;100.00;76277.00;5059154;28;19928;-65
2022/10/16 08:44:12;;;;;;;;;;;;;;;-142.75;100.00;76251.41;5060743;28;19917;-64
2022/10/16 08:46:43;;;;;;;;;;;;;;;-142.75;100.00;76239.59;5040534;28;19917;-63
2022/10/16 08:49:11;;;;;;;;;;;;;;;-142.75;100.00;76231.72;5053659;28;19925;-64
2022/10/16 08:51:36;;;;;;;;;;;;;;;-142.75;100.00;76219.91;5060268;28;19923;-64
2022/10/16 08:54:06;;;;;;;;;;;;;;;-142.75;100.00;76184.50;5058351;28;19921;-66
2022/10/16 08:56:31;;;;;;;;;;;;;;;-142.75;100.00;76166.78;5057444;28;20441;-67
2022/10/16 08:58:58;;;;;;;;;;;;;;;-142.75;100.00;76156.94;5036585;28;19921;-66
2022/10/16 09:01:25;;;;;;;;;;;;;;;-142.75;100.00;76143.16;5053778;28;19921;-65
2022/10/16 09:04:05;;;;;;;;;;;;;;;-142.75;100.00;76149.06;5051824;28;19924;-67
2022/10/16 09:06:31;;;;;;;;;;;;;;;-142.75;100.00;76239.59;5052974;28;19924;-67
2022/10/16 09:08:56;;;;;;;;;;;;;;;-142.75;100.00;76265.19;5053085;28;19916;-64
2022/10/16 09:11:30;;;;;;;;;;;;;;;-142.75;100.00;76341.97;5060823;28;20447;-64
2022/10/16 09:14:13;;;;;;;;;;;;;;;-142.75;100.00;76330.16;5058238;28;19932;-64
2022/10/16 09:16:44;;;;;;;;;;;;;;;-142.75;100.00;76286.84;5047471;28;19920;-64
2022/10/16 09:19:16;;;;;;;;;;;;;;;-142.75;100.00;76334.09;5045165;28;19917;-64
2022/10/16 09:21:43;;;;;;;;;;;;;;;-142.75;100.00;76334.09;5048150;28;19928;-64
2022/10/16 09:24:14;;;;;;;;;;;;;;;-142.75;100.00;76282.91;5049040;28;20533;-64
2022/10/16 09:26:39;;;;;;;;;;;;;;;-142.75;100.00;76235.66;5047214;28;20015;-64
2022/10/16 09:29:04;;;;;;;;;;;;;;;-142.75;100.00;76247.47;5048596;28;20671;-64
2022/10/16 09:31:29;;;;;;;;;;;;;;;-142.75;100.00;76249.44;5049956;28;19916;-64
2022/10/16 09:33:57;;;;;;;;;;;;;;;-142.75;100.00;76233.69;5047716;28;19924;-64
2022/10/16 09:36:23;;;;;;;;;;;;;;;-142.75;100.00;76223.84;5050217;28;19925;-64
2022/10/16 09:38:49;;;;;;;;;;;;;;;-142.75;100.00;76192.38;5048951;28;19917;-64
2022/10/16 09:41:19;;;;;;;;;;;;;;;-142.75;100.00;76143.16;5050302;28;20296;-64
2022/10/16 09:43:58;;;;;;;;;;;;;;;-142.75;100.00;76129.38;5047623;28;19920;-64
2022/10/16 09:46:26;;;;;;;;;;;;;;;-142.75;100.00;76091.97;5051853;28;20346;-64
2022/10/16 09:48:53;;;;;;;;;;;;;;;-142.75;100.00;76082.13;5046506;28;19924;-64
2022/10/16 09:51:21;;;;;;;;;;;;;;;-142.75;100.00;76117.56;5050587;28;19916;-64
2022/10/16 09:53:47;;;;;;;;;;;;;;;-142.75;100.00;76149.06;5054616;28;20470;-64
2022/10/16 09:56:21;;;;;;;;;;;;;;;-142.75;100.00;76109.69;5050567;28;20007;-65
2022/10/16 09:58:50;;;;;;;;;;;;;;;-142.75;100.00;76135.28;5057143;28;20390;-65
2022/10/16 10:01:16;;;;;;;;;;;;;;;-142.75;100.00;76182.53;5058858;28;19921;-64
2022/10/16 10:03:42;;;;;;;;;;;;;;;-142.75;100.00;76158.91;5057545;28;20378;-64
2022/10/16 10:06:27;;;;;;;;;;;;;;;-142.75;100.00;76172.69;5048707;28;19921;-64
2022/10/16 10:08:54;;;;;;;;;;;;;;;-142.75;100.00;76131.34;5050521;28;19932;-63
2022/10/16 10:11:35;;;;;;;;;;;;;;;-142.75;100.00;76062.47;5054920;28;20050;-64
2022/10/16 10:14:19;;;;;;;;;;;;;;;-142.75;100.00;76056.56;5041748;28;19916;-64
2022/10/16 10:16:45;;;;;;;;;;;;;;;-142.75;100.00;76078.19;5058820;28;20403;-64
2022/10/16 10:19:16;;;;;;;;;;;;;;;-142.75;100.00;76058.53;5051190;28;20008;-64
2022/10/16 10:21:42;;;;;;;;;;;;;;;-142.75;100.00;76021.13;5055692;28;19924;-64
2022/10/16 10:24:14;;;;;;;;;;;;;;;-142.75;100.00;75989.63;5051695;28;20348;-65
2022/10/16 10:26:43;;;;;;;;;;;;;;;-142.75;100.00;75944.38;5054970;28;19973;-64
2022/10/16 10:29:24;;;;;;;;;;;;;;;-142.75;100.00;75987.66;5061091;28;20382;-64
2022/10/16 10:32:08;;;;;;;;;;;;;;;-142.75;100.00;76050.66;5066272;28;19921;-65
2022/10/16 10:34:39;;;;;;;;;;;;;;;-142.75;100.00;76021.13;5062296;28;20294;-65
2022/10/16 10:37:13;;;;;;;;;;;;;;;-142.75;100.00;75999.47;5063163;28;19960;-65
2022/10/16 10:39:41;;;;;;;;;;;;;;;-142.75;100.00;75956.19;5061951;28;19916;-65
2022/10/16 10:42:36;;;;;;;;;;;;;;;-142.75;100.00;75881.38;5064659;28;20414;-65
2022/10/16 10:45:13;;;;;;;;;;;;;;;-142.75;100.00;75849.91;5048377;28;19955;-65
2022/10/16 10:47:47;;;;;;;;;;;;;;;-142.75;100.00;75849.91;5062496;28;19928;-65
2022/10/16 10:50:21;;;;;;;;;;;;;;;-142.75;100.00;75818.41;5063543;28;19956;-65
2022/10/16 10:52:58;;;;;;;;;;;;;;;-142.75;100.00;75798.72;5046025;28;19962;-65
2022/10/16 10:55:41;;;;;;;;;;;;;;;-142.75;100.00;75847.94;5066046;28;19959;-65
2022/10/16 10:58:27;;;;;;;;;;;;;;;-142.75;100.00;75765.25;5065352;28;19916;-65
2022/10/16 11:00:55;;;;;;;;;;;;;;;-142.75;100.00;75743.63;5062235;28;19935;-65
2022/10/16 11:03:39;;;;;;;;;;;;;;;-142.75;100.00;75763.28;5062008;28;19920;-65
2022/10/16 11:06:07;;;;;;;;;;;;;;;-142.75;100.00;75816.44;5056268;28;19917;-65
2022/10/16 11:08:32;;;;;;;;;;;;;;;-142.75;100.00;75954.22;5062134;28;19921;-65
2022/10/16 11:10:57;;;;;;;;;;;;;;;-142.75;100.00;75944.38;5063588;28;19924;-65
2022/10/16 11:13:26;;;;;;;;;;;;;;;-142.75;100.00;75950.28;5062295;28;19921;-65
2022/10/16 11:15:53;;;;;;;;;;;;;;;-142.75;100.00;75960.13;5062173;28;19924;-65
2022/10/16 11:18:21;;;;;;;;;;;;;;;-142.75;100.00;75940.44;5062844;28;19920;-65
2022/10/16 11:20:56;;;;;;;;;;;;;;;-142.75;100.00;75942.41;5066579;28;20295;-65
2022/10/16 11:23:25;;;;;;;;;;;;;;;-142.75;99.43;75928.63;5057602;28;20383;-65
2022/10/16 11:25:51;;;;;;;;;;;;;;;-142.75;100.00;75863.66;5067246;28;19924;-65
2022/10/16 11:28:24;;;;;;;;;;;;;;;-142.75;96.10;75842.03;5090748;23;19935;-70
2022/10/16 11:30:57;;;;;;;;;;;;;;;-142.75;90.33;75786.91;5074785;28;19921;-69
2022/10/16 11:33:36;;;;;;;;;;;;;;;-142.75;90.33;75818.41;5077969;28;19962;-71
2022/10/16 11:36:07;;;;;;;;;;;;;;;-142.75;92.42;75863.66;5067077;28;19923;-70
2022/10/16 11:38:41;;;;;;;;;;;;;;;-142.75;91.85;75818.41;5076879;28;19916;-69
2022/10/16 11:41:09;;;;;;;;;;;;;;;-142.75;86.80;75800.69;5066986;28;20495;-69
2022/10/16 11:43:38;;;;;;;;;;;;;;;-142.75;83.93;75865.63;5076899;28;19935;-70
2022/10/16 11:46:18;;;;;;;;;;;;;;;-142.75;91.78;75901.06;5068680;28;19916;-70
2022/10/16 11:48:55;;;;;;;;;;;;;;;-142.75;94.54;75938.47;5077545;28;19998;-70
2022/10/16 11:51:40;;;;;;;;;;;;;;;-142.75;92.98;75971.91;5075178;28;20398;-71
2022/10/16 11:54:26;;;;;;;;;;;;;;;-142.75;94.91;75928.63;5079419;28;20011;-71
2022/10/16 11:56:54;;;;;;;;;;;;;;;-142.75;92.83;75908.94;5055867;28;19962;-70
2022/10/16 11:59:23;;;;;;;;;;;;;;;-142.75;89.24;75865.63;5079565;28;19923;-70
2022/10/16 12:01:54;;;;;;;;;;;;;;;-142.75;86.80;75893.19;5066594;28;19927;-70
2022/10/16 12:04:35;;;;;;;;;;;;;;;-142.75;84.42;75942.41;5077861;28;19923;-70
2022/10/16 12:07:06;;;;;;;;;;;;;;;-142.75;86.09;75881.38;5080090;28;19917;-70
2022/10/16 12:09:34;;;;;;;;;;;;;;;-142.75;83.78;75869.56;5061179;28;20007;-71
2022/10/16 12:11:59;;;;;;;;;;;;;;;-142.75;82.18;75853.84;5082387;28;19970;-71
2022/10/16 12:14:27;;;;;;;;;;;;;;;-142.75;79.25;75865.63;5075066;28;20332;-70
2022/10/16 12:16:53;;;;;;;;;;;;;;;-142.75;78.82;75855.81;5078678;28;19970;-71
2022/10/16 12:19:20;;;;;;;;;;;;;;;-142.75;80.57;75916.81;5079239;28;20374;-70
2022/10/16 12:21:45;;;;;;;;;;;;;;;-142.75;79.54;75932.56;5058878;28;19920;-70